Time;durP1;ratioP1;P1;durP2;ratioP2;P2;SDS_P1;SDS_P2;PMS_P1;PMS_P2;Temp;Humidity;BMP_temperature;BMP_pressure;BME280_temperature;BME280_humidity;BME280_pressure;Samples;Min_cycle;Max_cycle;Signal;HPM_P1;HPM_P2
2022/06/18 00:01:33;;;;;;;14.80;13.30;;;;;;;13.00;100.00;99605.95;105200;1271;75649;-75
2022/06/18 00:04:07;;;;;;;15.10;13.20;;;;;;;12.97;100.00;99605.13;105202;1271;69031;-75
2022/06/18 00:06:57;;;;;;;15.30;12.80;;;;;;;12.95;100.00;99606.64;105207;1271;74175;-75
2022/06/18 00:09:30;;;;;;;15.10;13.50;;;;;;;12.94;100.00;99604.08;105203;1270;61247;-75
2022/06/18 00:14:47;;;;;;;15.70;14.10;;;;;;;12.90;100.00;99607.69;105212;1271;76195;-75
2022/06/18 00:17:17;;;;;;;16.70;14.80;;;;;;;12.88;100.00;99610.00;105055;1271;61406;-75
2022/06/18 00:19:47;;;;;;;16.70;15.00;;;;;;;12.85;100.00;99613.05;105221;1271;71402;-74
2022/06/18 00:22:16;;;;;;;18.40;16.10;;;;;;;12.81;100.00;99611.71;105040;1271;61833;-75
2022/06/18 00:24:44;;;;;;;18.20;16.30;;;;;;;12.78;100.00;99609.42;105217;1271;61160;-76
2022/06/18 00:27:13;;;;;;;18.90;16.00;;;;;;;12.75;100.00;99607.30;105221;1271;73953;-77
2022/06/18 00:29:40;;;;;;;17.90;16.00;;;;;;;12.72;100.00;99609.77;105196;1271;70656;-75
2022/06/18 00:32:07;;;;;;;16.90;15.10;;;;;;;12.70;100.00;99611.70;105092;1269;61206;-75
2022/06/18 00:34:35;;;;;;;17.90;15.10;;;;;;;12.66;100.00;99615.34;105193;1271;61362;-75
2022/06/18 00:37:04;;;;;;;16.10;14.60;;;;;;;12.62;100.00;99617.41;104985;1271;61018;-76
2022/06/18 00:39:31;;;;;;;16.00;14.50;;;;;;;12.58;100.00;99612.89;105237;1272;74136;-75
2022/06/18 00:42:04;;;;;;;14.60;13.20;;;;;;;12.53;100.00;99612.10;105186;1271;70694;-75
2022/06/18 00:44:39;;;;;;;14.80;13.30;;;;;;;12.49;100.00;99603.46;105197;1271;74304;-75
2022/06/18 00:47:08;;;;;;;14.60;13.10;;;;;;;12.46;100.00;99605.63;105246;1271;61423;-75
2022/06/18 00:49:45;;;;;;;14.80;13.30;;;;;;;12.43;100.00;99609.72;105219;1271;61383;-75
2022/06/18 00:52:20;;;;;;;17.40;13.30;;;;;;;12.40;100.00;99611.17;105174;1271;75300;-75
2022/06/18 00:54:55;;;;;;;14.90;13.50;;;;;;;12.35;100.00;99609.37;105033;1271;68795;-75
2022/06/18 00:57:31;;;;;;;14.40;12.90;;;;;;;12.31;100.00;99609.42;105177;1271;73670;-75
2022/06/18 01:00:06;;;;;;;14.90;12.90;;;;;;;12.26;100.00;99608.15;105246;1271;61313;-75
2022/06/18 01:02:39;;;;;;;16.20;14.70;;;;;;;12.23;100.00;99609.63;105200;1271;61263;-75
2022/06/18 01:05:20;;;;;;;17.90;14.10;;;;;;;12.21;100.00;99608.13;105202;1271;75110;-76
2022/06/18 01:07:53;;;;;;;14.70;13.20;;;;;;;12.18;100.00;99609.94;105228;1271;69703;-76
2022/06/18 01:10:34;;;;;;;15.90;13.40;;;;;;;12.14;100.00;99609.61;105270;1271;73221;-76
2022/06/18 01:13:05;;;;;;;12.70;11.30;;;;;;;12.10;100.00;99610.61;105202;1271;61175;-75
2022/06/18 01:15:33;;;;;;;13.20;11.70;;;;;;;12.05;100.00;99607.71;105268;1271;61378;-75
2022/06/18 01:18:01;;;;;;;12.20;11.10;;;;;;;12.03;100.00;99606.96;105186;1271;76257;-75
2022/06/18 01:20:28;;;;;;;13.30;11.40;;;;;;;12.02;100.00;99606.67;105216;1271;70455;-75
2022/06/18 01:23:30;;;;;;;11.50;10.30;;;;;;;12.01;100.00;99608.50;105217;1271;73279;-76
2022/06/18 01:25:56;;;;;;;12.30;11.10;;;;;;;12.00;100.00;99607.48;105184;1271;61383;-76
2022/06/18 01:28:23;;;;;;;12.80;11.50;;;;;;;12.00;100.00;99604.12;105076;1271;61330;-76
2022/06/18 01:30:50;;;;;;;12.90;11.50;;;;;;;11.98;100.00;99606.88;105204;1271;74095;-76
2022/06/18 01:33:17;;;;;;;12.60;11.30;;;;;;;11.97;100.00;99602.20;105198;1271;69273;-76
2022/06/18 01:35:47;;;;;;;11.90;10.70;;;;;;;11.95;100.00;99598.39;104905;1271;72938;-75
2022/06/18 01:38:14;;;;;;;12.70;11.10;;;;;;;11.91;100.00;99599.54;105246;1271;61307;-75
2022/06/18 01:40:54;;;;;;;11.70;10.50;;;;;;;11.87;100.00;99591.41;105235;1271;61395;-76
2022/06/18 01:43:23;;;;;;;12.20;10.20;;;;;;;11.84;100.00;99586.95;105132;1271;76167;-76
2022/06/18 01:45:58;;;;;;;11.10;10.10;;;;;;;11.83;100.00;99585.92;105249;1271;68925;-76
2022/06/18 01:48:31;;;;;;;13.00;11.60;;;;;;;11.81;100.00;99581.95;105243;1271;73454;-76
2022/06/18 01:51:04;;;;;;;12.50;11.30;;;;;;;11.79;100.00;99582.08;105198;1271;61295;-75
2022/06/18 01:53:37;;;;;;;12.30;11.00;;;;;;;11.77;100.00;99578.43;105304;1271;61232;-77
2022/06/18 01:56:13;;;;;;;13.10;11.60;;;;;;;11.76;100.00;99578.53;105190;1271;75262;-76
2022/06/18 01:58:46;;;;;;;12.30;11.00;;;;;;;11.74;100.00;99571.54;105189;1271;69300;-76
2022/06/18 02:01:25;;;;;;;12.70;11.40;;;;;;;11.72;100.00;99575.02;105113;1271;73117;-76
2022/06/18 02:03:57;;;;;;;13.20;11.70;;;;;;;11.70;100.00;99576.95;105198;1271;61314;-76
2022/06/18 02:06:24;;;;;;;17.30;12.50;;;;;;;11.66;100.00;99576.10;105199;1271;61840;-76
2022/06/18 02:08:52;;;;;;;12.70;11.50;;;;;;;11.63;100.00;99568.59;105215;1271;73554;-74
2022/06/18 02:11:21;;;;;;;12.80;11.50;;;;;;;11.63;100.00;99567.58;105050;1271;68858;-75
2022/06/18 02:13:54;;;;;;;11.40;10.40;;;;;;;11.60;100.00;99562.94;105217;1271;74516;-75
2022/06/18 02:16:26;;;;;;;12.80;10.90;;;;;;;11.57;100.00;99564.60;105223;1271;61653;-76
2022/06/18 02:18:54;;;;;;;13.30;11.90;;;;;;;11.54;100.00;99560.45;105255;1271;61300;-76
2022/06/18 02:21:22;;;;;;;16.10;11.80;;;;;;;11.51;100.00;99562.41;104827;1271;76341;-76
2022/06/18 02:23:55;;;;;;;12.10;10.60;;;;;;;11.51;100.00;99559.64;105239;1271;70061;-76
2022/06/18 02:26:27;;;;;;;14.80;12.20;;;;;;;11.52;100.00;99560.63;105219;1271;73383;-76
2022/06/18 02:28:55;;;;;;;15.30;12.50;;;;;;;11.53;100.00;99561.06;105150;1270;61330;-76
2022/06/18 02:31:28;;;;;;;13.40;12.00;;;;;;;11.54;100.00;99556.93;105152;1271;61176;-76
2022/06/18 02:34:00;;;;;;;13.60;12.30;;;;;;;11.56;100.00;99560.94;105159;1271;75241;-75
2022/06/18 02:36:34;;;;;;;14.00;12.60;;;;;;;11.56;100.00;99559.27;105201;1271;69170;-77
2022/06/18 02:39:33;;;;;;;14.20;12.80;;;;;;;11.58;100.00;99557.56;105222;1271;74147;-75
2022/06/18 02:42:12;;;;;;;18.00;14.40;;;;;;;11.59;100.00;99560.70;105188;1271;61345;-77
2022/06/18 02:44:42;;;;;;;13.80;12.20;;;;;;;11.59;100.00;99561.38;105240;1271;61358;-77
2022/06/18 02:47:11;;;;;;;13.50;12.00;;;;;;;11.60;100.00;99560.27;105134;1271;74297;-76
2022/06/18 02:49:42;;;;;;;13.40;11.30;;;;;;;11.60;100.00;99554.40;105285;1271;70474;-77
2022/06/18 02:52:09;;;;;;;12.80;10.80;;;;;;;11.63;100.00;99559.54;105211;1271;73659;-76
2022/06/18 02:54:35;;;;;;;11.70;10.40;;;;;;;11.65;100.00;99563.52;105046;1271;61409;-76
2022/06/18 02:57:08;;;;;;;16.50;11.20;;;;;;;11.64;100.00;99563.56;105228;1271;61189;-76
2022/06/18 02:59:35;;;;;;;12.90;11.20;;;;;;;11.65;100.00;99567.81;105279;1271;76307;-75
2022/06/18 03:02:01;;;;;;;11.00;9.80;;;;;;;11.65;100.00;99562.96;105226;1271;69254;-76
2022/06/18 03:04:28;;;;;;;10.20;9.20;;;;;;;11.65;100.00;99567.25;105203;1271;74118;-75
2022/06/18 03:06:55;;;;;;;11.00;10.00;;;;;;;11.67;100.00;99563.07;104888;1271;386299;-76
2022/06/18 03:09:22;;;;;;;11.20;10.00;;;;;;;11.69;100.00;99560.30;105160;1271;61390;-75
2022/06/18 03:12:07;;;;;;;12.00;10.70;;;;;;;11.71;100.00;99560.34;105207;1271;75558;-75
2022/06/18 03:14:34;;;;;;;11.30;10.20;;;;;;;11.75;100.00;99559.53;105244;1271;69854;-75
2022/06/18 03:17:00;;;;;;;11.10;9.90;;;;;;;11.80;100.00;99561.52;105185;1271;74422;-75
2022/06/18 03:19:38;;;;;;;10.90;9.90;;;;;;;11.85;100.00;99563.38;105220;1271;61276;-75
2022/06/18 03:22:16;;;;;;;11.20;10.00;;;;;;;11.91;100.00;99561.79;105224;1271;61163;-76
2022/06/18 03:24:42;;;;;;;12.50;11.30;;;;;;;11.97;100.00;99563.54;105181;1271;75202;-76
2022/06/18 03:27:11;;;;;;;13.80;12.40;;;;;;;12.05;100.00;99565.88;105180;1271;70597;-75
2022/06/18 03:29:38;;;;;;;11.10;10.10;;;;;;;12.36;100.00;99564.36;105026;1271;74141;-76
2022/06/18 03:32:05;;;;;;;11.30;10.10;;;;;;;13.71;100.00;99557.51;105009;1271;61410;-76
2022/06/18 03:34:32;;;;;;;9.90;9.00;;;;;;;15.08;100.00;99556.61;105218;1271;61742;-75
2022/06/18 03:36:59;;;;;;;8.40;7.60;;;;;;;16.20;100.00;99554.98;105188;1271;75435;-76
2022/06/18 03:39:26;;;;;;;8.00;6.90;;;;;;;17.17;100.00;99552.14;105217;1271;69262;-75
2022/06/18 03:41:53;;;;;;;8.50;6.70;;;;;;;18.00;100.00;99550.73;105247;1271;72192;-75
2022/06/18 03:44:20;;;;;;;8.20;7.40;;;;;;;18.70;100.00;99543.66;105052;1271;61384;-76
2022/06/18 03:46:47;;;;;;;6.70;6.20;;;;;;;19.33;100.00;99543.61;105262;1271;61302;-75
2022/06/18 03:49:31;;;;;;;7.80;7.10;;;;;;;19.96;100.00;99541.00;105210;1271;61230;-76
2022/06/18 03:51:59;;;;;;;7.30;6.70;;;;;;;20.64;100.00;99544.05;104978;1271;70027;-75
2022/06/18 03:54:26;;;;;;;7.10;6.30;;;;;;;21.18;100.00;99542.80;105362;1271;73596;-75
2022/06/18 03:56:53;;;;;;;7.20;6.50;;;;;;;21.73;100.00;99532.73;105172;1271;61428;-75
2022/06/18 03:59:21;;;;;;;7.50;6.80;;;;;;;22.42;100.00;99534.42;105265;1271;61265;-75
2022/06/18 04:01:48;;;;;;;7.70;6.80;;;;;;;23.05;100.00;99526.90;105209;1271;75379;-76
2022/06/18 04:04:15;;;;;;;6.70;6.20;;;;;;;23.55;100.00;99530.54;105241;1271;69350;-76
2022/06/18 04:06:42;;;;;;;6.90;6.30;;;;;;;23.97;100.00;99528.31;105242;1271;74602;-75
2022/06/18 04:09:10;;;;;;;6.60;6.10;;;;;;;24.34;100.00;99526.23;105228;1271;61291;-75
2022/06/18 04:11:37;;;;;;;6.10;5.70;;;;;;;24.69;100.00;99525.30;105065;1271;61309;-75
2022/06/18 04:14:04;;;;;;;6.90;6.00;;;;;;;25.00;100.00;99524.73;105241;1271;75348;-75
2022/06/18 04:16:31;;;;;;;7.20;6.60;;;;;;;25.29;100.00;99518.31;105318;1271;69756;-75
2022/06/18 04:18:57;;;;;;;6.90;6.40;;;;;;;25.39;100.00;99518.43;105234;1271;73147;-76
2022/06/18 04:21:24;;;;;;;7.20;6.60;;;;;;;25.55;100.00;99520.14;105223;1271;61295;-76
2022/06/18 04:23:51;;;;;;;7.20;6.60;;;;;;;25.65;100.00;99522.42;105184;1271;62121;-76
2022/06/18 04:26:17;;;;;;;7.30;6.60;;;;;;;25.90;100.00;99525.93;105251;1271;74819;-76
2022/06/18 04:28:45;;;;;;;7.00;6.40;;;;;;;26.19;100.00;99529.77;105255;1271;69119;-76
2022/06/18 04:31:11;;;;;;;7.80;7.00;;;;;;;26.24;99.73;99533.65;105234;1271;73326;-75
2022/06/18 04:33:38;;;;;;;6.80;6.20;;;;;;;26.30;99.02;99533.52;105223;1271;61313;-76
2022/06/18 04:36:05;;;;;;;7.30;5.70;;;;;;;26.50;97.84;99532.50;105243;1271;61249;-77
2022/06/18 04:38:32;;;;;;;8.50;5.70;;;;;;;26.60;96.31;99531.94;105277;1270;76136;-75
2022/06/18 04:40:58;;;;;;;6.10;5.60;;;;;;;26.58;95.38;99529.46;105277;1271;61298;-76
2022/06/18 04:43:26;;;;;;;5.80;5.30;;;;;;;26.66;94.96;99528.80;105225;1271;61301;-76
2022/06/18 04:45:56;;;;;;;7.70;5.60;;;;;;;26.81;93.66;99529.88;105259;1271;61374;-76
2022/06/18 04:48:22;;;;;;;5.80;5.20;;;;;;;26.97;92.11;99527.52;105300;1271;61304;-76
2022/06/18 04:50:49;;;;;;;7.10;5.40;;;;;;;27.06;91.19;99530.88;105229;1271;75299;-75
2022/06/18 04:53:16;;;;;;;6.60;5.90;;;;;;;27.01;90.56;99528.64;105298;1271;70237;-74
2022/06/18 04:55:43;;;;;;;6.50;5.50;;;;;;;27.17;90.30;99534.06;105276;1271;71900;-74
2022/06/18 04:58:10;;;;;;;7.50;5.50;;;;;;;27.22;89.21;99536.80;104948;1271;61304;-76
2022/06/18 05:00:39;;;;;;;8.40;6.60;;;;;;;27.28;88.13;99534.56;105289;1271;61177;-76
2022/06/18 05:03:05;;;;;;;6.40;5.60;;;;;;;27.39;87.29;99531.06;105242;1271;76394;-76
2022/06/18 05:05:32;;;;;;;6.40;5.80;;;;;;;27.64;85.64;99531.63;105268;1271;61294;-76
2022/06/18 05:07:59;;;;;;;6.10;5.60;;;;;;;27.76;83.37;99537.66;104997;1271;74265;-76
2022/06/18 05:10:25;;;;;;;6.20;5.60;;;;;;;27.86;81.01;99539.64;105272;1271;61252;-76
2022/06/18 05:12:52;;;;;;;6.90;5.10;;;;;;;27.89;73.71;99542.45;105220;1271;61156;-76
2022/06/18 05:15:19;;;;;;;5.70;5.20;;;;;;;28.01;70.70;99537.27;105011;1271;73549;-76
2022/06/18 05:17:46;;;;;;;7.30;5.20;;;;;;;28.21;69.56;99538.36;105242;1271;69869;-74
2022/06/18 05:20:17;;;;;;;5.80;5.30;;;;;;;28.28;66.59;99537.80;105242;1270;74471;-74
2022/06/18 05:22:43;;;;;;;5.00;4.50;;;;;;;28.19;63.88;99536.32;104952;1271;62880;-77
2022/06/18 05:25:12;;;;;;;4.90;4.40;;;;;;;28.21;62.87;99536.59;105247;1271;61357;-75
2022/06/18 05:27:39;;;;;;;5.10;4.60;;;;;;;28.24;62.47;99535.41;105329;1271;75917;-75
2022/06/18 05:30:10;;;;;;;4.90;4.40;;;;;;;28.20;62.16;99535.02;105252;1271;69448;-75
2022/06/18 05:32:36;;;;;;;5.10;4.20;;;;;;;28.28;61.87;99537.80;105218;1271;74887;-75
2022/06/18 05:35:03;;;;;;;8.10;4.90;;;;;;;28.41;61.30;99536.26;105238;1271;61256;-76
2022/06/18 05:37:32;;;;;;;5.90;4.30;;;;;;;28.40;60.88;99538.42;104881;1271;62048;-77
2022/06/18 05:40:00;;;;;;;4.00;3.70;;;;;;;28.52;60.21;99538.89;105197;1270;75918;-77
2022/06/18 05:42:26;;;;;;;4.50;4.10;;;;;;;28.63;60.03;99538.00;105050;1271;70497;-76
2022/06/18 05:44:54;;;;;;;7.30;4.70;;;;;;;28.78;59.91;99538.71;105278;1271;73203;-77
2022/06/18 05:47:24;;;;;;;6.40;4.90;;;;;;;28.99;57.97;99539.89;104949;1271;61313;-75
2022/06/18 05:49:51;;;;;;;6.50;4.90;;;;;;;28.92;56.71;99535.14;105089;1271;61958;-75
2022/06/18 05:52:19;;;;;;;5.20;4.70;;;;;;;28.85;56.03;99533.84;105380;1271;75700;-75
2022/06/18 05:54:46;;;;;;;5.90;4.80;;;;;;;28.87;56.13;99534.68;105248;1271;69271;-75
2022/06/18 05:57:13;;;;;;;6.80;4.80;;;;;;;28.91;55.16;99528.31;105215;1270;73226;-75
2022/06/18 05:59:40;;;;;;;5.60;5.00;;;;;;;29.00;54.33;99524.30;105219;1271;61400;-77
2022/06/18 06:02:10;;;;;;;5.30;4.30;;;;;;;28.99;53.54;99522.04;105237;1271;62347;-76
2022/06/18 06:04:39;;;;;;;4.60;3.90;;;;;;;29.16;52.48;99521.40;105235;1271;75612;-75
2022/06/18 06:07:06;;;;;;;5.00;4.30;;;;;;;29.24;51.21;99520.14;105102;1271;69739;-73
2022/06/18 06:12:18;;;;;;;3.90;3.40;;;;;;;29.22;49.79;99518.36;105261;1271;61341;-77
2022/06/18 06:14:45;;;;;;;4.90;3.30;;;;;;;29.10;48.87;99519.91;105241;1271;61339;-76
2022/06/18 06:17:15;;;;;;;4.20;3.60;;;;;;;28.90;48.24;99519.61;105223;1270;61296;-77
2022/06/18 06:19:42;;;;;;;7.10;3.60;;;;;;;28.74;48.27;99521.48;105213;1271;69081;-77
2022/06/18 06:22:09;;;;;;;5.20;3.60;;;;;;;28.58;48.21;99521.11;105027;1271;73303;-74
2022/06/18 06:24:35;;;;;;;5.70;3.60;;;;;;;28.49;48.48;99519.27;105238;1271;61214;-75
2022/06/18 06:27:02;;;;;;;3.60;2.80;;;;;;;28.60;47.93;99513.13;105176;1271;61216;-75
2022/06/18 06:29:29;;;;;;;8.10;3.60;;;;;;;28.46;46.94;99512.45;105234;1271;75528;-75
2022/06/18 06:31:56;;;;;;;6.60;3.20;;;;;;;28.30;47.47;99509.52;105207;1271;67362;-75
2022/06/18 06:34:22;;;;;;;5.80;3.30;;;;;;;28.43;47.72;99507.66;105245;1271;73098;-75
2022/06/18 06:36:49;;;;;;;5.90;3.40;;;;;;;28.50;47.39;99505.36;105201;1271;61383;-75
2022/06/18 06:39:16;;;;;;;5.60;4.00;;;;;;;28.50;47.37;99504.42;105022;1271;61354;-77
2022/06/18 06:41:44;;;;;;;7.50;3.40;;;;;;;28.47;47.63;99505.56;105152;1271;75114;-77
2022/06/18 06:44:10;;;;;;;4.40;3.30;;;;;;;28.58;47.81;99499.70;105154;1271;70624;-76
2022/06/18 06:46:37;;;;;;;6.10;2.80;;;;;;;28.65;47.45;99496.36;105160;1271;73969;-75
2022/06/18 06:49:03;;;;;;;4.20;2.90;;;;;;;28.76;47.08;99500.89;105246;1271;61269;-75
2022/06/18 06:51:32;;;;;;;3.10;2.60;;;;;;;28.77;47.38;99502.96;105201;1271;62003;-76
2022/06/18 06:53:58;;;;;;;2.30;2.10;;;;;;;28.54;47.10;99506.74;105412;1271;75139;-76
2022/06/18 06:59:11;;;;;;;5.60;2.40;;;;;;;28.17;47.57;99510.77;105219;1271;74222;-76
2022/06/18 07:01:38;;;;;;;2.20;2.00;;;;;;;28.13;47.74;99509.27;105248;1271;61312;-77
2022/06/18 07:04:07;;;;;;;2.50;1.90;;;;;;;28.06;47.60;99502.23;105375;1271;61796;-75
2022/06/18 07:06:37;;;;;;;2.30;1.60;;;;;;;28.04;47.29;99502.99;105025;1271;74757;-75
2022/06/18 07:09:05;;;;;;;3.60;2.20;;;;;;;28.00;47.10;99504.61;105023;1271;70302;-77
2022/06/18 07:11:33;;;;;;;3.50;2.30;;;;;;;28.03;47.15;99506.05;105216;1271;72058;-75
2022/06/18 07:14:00;;;;;;;2.70;1.80;;;;;;;28.01;47.57;99505.41;105249;1271;61285;-75
2022/06/18 07:16:27;;;;;;;1.90;1.70;;;;;;;28.06;48.01;99505.52;104965;1271;61174;-76
2022/06/18 07:18:56;;;;;;;2.20;1.80;;;;;;;27.99;46.82;99502.46;105319;1271;75164;-76
2022/06/18 07:21:24;;;;;;;3.00;1.90;;;;;;;27.69;47.34;99509.84;105189;1271;69113;-76
2022/06/18 07:23:51;;;;;;;2.00;1.90;;;;;;;27.63;47.95;99506.91;105233;1271;73365;-76
2022/06/18 07:26:20;;;;;;;2.90;2.40;;;;;;;27.69;48.33;99504.57;105262;1271;61398;-76
2022/06/18 07:28:48;;;;;;;4.10;2.10;;;;;;;27.73;48.79;99503.25;105374;1271;61170;-75
2022/06/18 07:31:21;;;;;;;3.90;2.10;;;;;;;27.77;48.25;99507.26;105253;1271;75076;-75
2022/06/18 07:33:47;;;;;;;2.20;1.80;;;;;;;27.54;48.83;99509.53;105255;1271;68150;-75
2022/06/18 07:36:14;;;;;;;3.00;1.80;;;;;;;27.34;49.77;99507.58;105204;1271;74307;-75
2022/06/18 07:38:41;;;;;;;6.20;2.30;;;;;;;27.15;49.79;99511.69;105265;1271;61391;-76
2022/06/18 07:41:08;;;;;;;2.40;1.60;;;;;;;27.01;50.17;99513.63;105233;1268;61288;-76
2022/06/18 07:43:40;;;;;;;4.00;1.90;;;;;;;26.75;49.11;99514.92;105261;1271;75229;-76
2022/06/18 07:46:10;;;;;;;2.00;1.60;;;;;;;26.36;49.25;99509.09;105277;1271;69340;-76
2022/06/18 07:48:39;;;;;;;6.30;1.90;;;;;;;26.15;50.36;99513.61;105181;1271;72998;-75
2022/06/18 07:51:06;;;;;;;1.70;1.40;;;;;;;26.04;49.81;99518.94;105198;1271;61317;-75
2022/06/18 07:53:34;;;;;;;1.40;1.30;;;;;;;25.78;49.41;99521.30;104958;1271;62330;-76
2022/06/18 07:56:00;;;;;;;4.60;1.60;;;;;;;25.49;49.78;99526.17;105000;1271;75362;-75
2022/06/18 07:58:27;;;;;;;2.60;1.90;;;;;;;25.39;49.62;99523.20;105112;1271;69097;-75
2022/06/18 08:00:56;;;;;;;1.80;1.70;;;;;;;25.30;50.81;99520.97;105130;1271;73623;-75
2022/06/18 08:03:23;;;;;;;1.50;1.40;;;;;;;25.40;50.96;99519.98;105122;1271;61341;-76
2022/06/18 08:05:52;;;;;;;2.00;1.70;;;;;;;25.42;50.99;99517.58;104992;1271;61368;-76
2022/06/18 08:08:19;;;;;;;2.50;1.90;;;;;;;25.39;50.90;99510.61;105182;1271;74589;-75
2022/06/18 08:10:49;;;;;;;3.70;1.80;;;;;;;25.33;49.88;99512.44;105101;1271;68978;-76
2022/06/18 08:13:16;;;;;;;2.40;1.70;;;;;;;25.23;51.25;99508.20;105118;1271;74329;-76
2022/06/18 08:15:43;;;;;;;3.10;1.80;;;;;;;25.39;51.83;99507.67;105122;1271;61301;-76
2022/06/18 08:18:10;;;;;;;2.50;1.60;;;;;;;25.56;51.81;99504.36;104922;1271;61756;-77
2022/06/18 08:20:37;;;;;;;2.10;1.50;;;;;;;25.67;51.66;99497.17;104903;1271;75102;-76
2022/06/18 08:23:06;;;;;;;5.10;1.80;;;;;;;25.72;51.51;99493.98;105149;1271;70544;-77
2022/06/18 08:25:34;;;;;;;5.00;2.50;;;;;;;25.78;50.74;99488.89;105059;1271;74325;-76
2022/06/18 08:28:04;;;;;;;2.30;1.50;;;;;;;25.71;50.39;99481.40;105106;1271;61372;-77
2022/06/18 08:30:31;;;;;;;4.40;1.40;;;;;;;25.75;50.83;99474.77;105271;1271;61311;-76
2022/06/18 08:32:58;;;;;;;2.10;1.50;;;;;;;25.81;50.68;99475.96;105095;1271;73488;-77
2022/06/18 08:35:24;;;;;;;2.00;1.40;;;;;;;25.94;51.47;99480.77;104925;1271;61348;-77
2022/06/18 08:37:53;;;;;;;1.60;1.50;;;;;;;26.15;51.32;99481.67;105107;1271;73441;-77
2022/06/18 08:40:58;;;;;;;1.90;1.60;;;;;;;26.31;51.04;99481.48;105035;1271;61409;-76
2022/06/18 08:43:54;;;;;;;2.70;1.60;;;;;;;26.38;49.30;99472.73;104575;1278;61381;-77
2022/06/18 08:46:30;;;;;;;4.80;1.60;;;;;;;26.40;49.59;99466.99;104541;1278;75237;-75
2022/06/18 08:49:24;;;;;;;1.90;1.40;;;;;;;26.50;49.96;99462.64;104491;1280;69156;-76
2022/06/18 08:52:08;;;;;;;1.70;1.50;;;;;;;26.53;48.54;99454.55;104561;1278;73189;-76
2022/06/18 08:54:45;;;;;;;1.50;1.40;;;;;;;26.51;48.08;99459.81;104573;1278;61260;-77
2022/06/18 08:57:20;;;;;;;3.70;1.70;;;;;;;26.46;48.24;99452.56;104588;1277;61774;-77
2022/06/18 08:59:59;;;;;;;1.70;1.40;;;;;;;26.45;48.62;99449.48;104547;1277;76585;-76
2022/06/18 09:02:52;;;;;;;5.10;1.50;;;;;;;26.35;47.60;99447.67;104576;1278;69465;-76
2022/06/18 09:05:41;;;;;;;1.80;1.40;;;;;;;26.22;47.92;99444.52;104615;1278;73232;-77
2022/06/18 09:08:35;;;;;;;4.10;1.60;;;;;;;26.28;48.68;99440.45;104539;1277;61391;-77
2022/06/18 09:11:21;;;;;;;1.60;1.30;;;;;;;26.44;48.13;99434.58;104630;1278;61506;-76
2022/06/18 09:14:14;;;;;;;3.90;2.10;;;;;;;26.51;48.56;99426.52;104502;1277;75242;-76
2022/06/18 09:16:48;;;;;;;1.50;1.40;;;;;;;26.76;48.55;99427.88;103859;1287;70265;-76
2022/06/18 09:19:18;;;;;;;2.40;1.30;;;;;;;26.90;46.78;99431.50;103825;1279;73258;-78
2022/06/18 09:21:51;;;;;;;1.50;1.30;;;;;;;26.96;45.30;99428.56;104604;1279;61298;-76
2022/06/18 09:24:42;;;;;;;1.30;1.00;;;;;;;27.02;44.32;99426.35;104389;1281;61424;-76
2022/06/18 09:27:23;;;;;;;1.50;1.30;;;;;;;27.17;44.67;99421.09;104591;1279;75240;-77
2022/06/18 09:30:02;;;;;;;1.80;1.50;;;;;;;27.39;44.03;99419.55;104581;1278;70023;-76
2022/06/18 09:32:31;;;;;;;2.40;1.30;;;;;;;27.56;42.82;99414.60;104495;1279;73179;-77
2022/06/18 09:35:04;;;;;;;1.90;1.40;;;;;;;27.59;41.93;99412.72;104521;1278;61400;-77
2022/06/18 09:37:39;;;;;;;3.70;1.40;;;;;;;27.79;41.65;99413.08;104531;1278;61242;-76
2022/06/18 09:40:15;;;;;;;1.40;1.30;;;;;;;27.88;40.97;99414.40;104540;1278;75505;-76
2022/06/18 09:42:54;;;;;;;1.50;1.30;;;;;;;27.84;40.30;99413.66;104546;1278;69487;-76
2022/06/18 09:45:31;;;;;;;2.40;1.30;;;;;;;27.92;39.46;99408.89;104550;1278;72950;-75
2022/06/18 09:47:58;;;;;;;1.60;1.50;;;;;;;27.95;39.40;99406.50;104465;1278;61366;-78
2022/06/18 09:51:04;;;;;;;1.60;1.20;;;;;;;28.25;39.54;99402.12;104570;1277;61401;-76
2022/06/18 09:53:40;;;;;;;3.30;1.50;;;;;;;28.60;38.56;99400.15;104095;1280;76127;-76
2022/06/18 09:56:10;;;;;;;1.80;1.50;;;;;;;28.79;38.46;99401.00;104499;1279;69382;-76
2022/06/18 09:58:49;;;;;;;3.00;1.30;;;;;;;28.85;38.06;99402.02;104493;1279;73401;-76
2022/06/18 10:01:20;;;;;;;2.60;1.20;;;;;;;28.84;38.31;99399.13;104519;1279;61362;-76
2022/06/18 10:09:29;;;;;;;1.50;1.20;;;;;;;29.09;37.19;99395.39;104345;1281;68654;-76
2022/06/18 10:11:56;;;;;;;1.60;1.50;;;;;;;29.26;36.77;99395.28;104538;1279;73183;-76
2022/06/18 10:14:23;;;;;;;1.70;1.50;;;;;;;29.37;36.61;99392.85;104555;1279;61360;-76
2022/06/18 10:17:20;;;;;;;1.50;1.40;;;;;;;29.58;36.06;99392.61;104592;1279;61292;-75
2022/06/18 10:20:03;;;;;;;2.20;1.30;;;;;;;29.63;36.05;99392.30;104499;1279;75883;-76
2022/06/18 10:22:57;;;;;;;2.40;0.90;;;;;;;29.51;35.74;99386.69;104667;1279;69425;-76
2022/06/18 10:25:43;;;;;;;2.00;1.30;;;;;;;29.14;35.12;99385.50;104906;1279;73208;-76
2022/06/18 10:28:41;;;;;;;1.10;1.00;;;;;;;28.88;34.56;99382.89;104814;1271;61443;-76
2022/06/18 10:31:39;;;;;;;1.30;1.20;;;;;;;28.80;34.34;99378.05;105106;1271;60134;-75
2022/06/18 10:34:21;;;;;;;1.10;1.10;;;;;;;28.74;34.44;99377.92;105260;1271;75322;-76
2022/06/18 10:37:36;;;;;;;1.50;1.00;;;;;;;28.57;34.66;99372.46;105266;1271;69442;-77
2022/06/18 10:40:43;;;;;;;1.90;1.20;;;;;;;28.31;35.13;99371.94;104868;1277;74534;-77
2022/06/18 10:43:28;;;;;;;1.10;1.00;;;;;;;28.19;36.38;99367.20;104831;1277;61349;-76
2022/06/18 10:46:08;;;;;;;5.90;4.10;;;;;;;28.20;36.18;99361.85;104831;1277;61849;-77
2022/06/18 10:48:35;;;;;;;3.90;1.90;;;;;;;28.13;36.57;99360.56;104842;1277;76157;-77
2022/06/18 10:51:03;;;;;;;2.40;1.80;;;;;;;28.06;36.64;99358.31;104941;1277;69293;-75
2022/06/18 10:53:44;;;;;;;3.40;1.40;;;;;;;27.97;36.52;99353.90;104634;1277;74290;-75
2022/06/18 10:56:17;;;;;;;1.70;1.30;;;;;;;27.70;34.92;99353.03;104868;1277;61345;-77
2022/06/18 10:59:02;;;;;;;1.40;1.30;;;;;;;27.50;36.07;99349.23;104827;1277;61257;-76
2022/06/18 11:01:38;;;;;;;1.40;1.30;;;;;;;27.42;36.24;99348.70;104797;1277;76319;-75
2022/06/18 11:04:29;;;;;;;3.50;1.50;;;;;;;27.41;37.63;99340.30;104870;1277;69147;-74
2022/06/18 11:07:02;;;;;;;1.50;1.20;;;;;;;27.52;36.67;99338.25;104846;1277;73400;-76
2022/06/18 11:09:32;;;;;;;2.70;1.00;;;;;;;27.38;36.84;99339.54;104952;1276;61339;-76
2022/06/18 11:12:07;;;;;;;1.90;1.30;;;;;;;27.36;37.00;99339.83;104868;1277;61498;-75
2022/06/18 11:14:42;;;;;;;2.00;1.80;;;;;;;27.41;37.10;99332.52;104856;1277;76477;-76
2022/06/18 11:17:21;;;;;;;2.40;1.80;;;;;;;27.44;37.12;99325.13;105132;1271;67572;-77
2022/06/18 11:19:51;;;;;;;2.20;1.60;;;;;;;27.57;37.38;99323.70;105058;1271;73283;-76
2022/06/18 11:22:28;;;;;;;1.80;1.20;;;;;;;27.65;37.15;99316.06;105192;1271;61534;-76
2022/06/18 11:25:01;;;;;;;2.20;2.00;;;;;;;27.76;37.50;99312.90;105205;1271;61196;-76
2022/06/18 11:27:32;;;;;;;1.10;1.00;;;;;;;27.81;37.31;99307.99;105024;1271;73388;-76
2022/06/18 11:29:59;;;;;;;2.00;1.10;;;;;;;27.76;37.29;99304.55;105237;1270;69144;-77
2022/06/18 11:32:35;;;;;;;1.60;0.90;;;;;;;27.69;37.21;99303.10;104969;1271;72854;-77
2022/06/18 11:35:08;;;;;;;1.90;1.10;;;;;;;27.62;36.55;99307.07;105236;1271;61412;-76
2022/06/18 11:37:35;;;;;;;2.30;1.30;;;;;;;27.46;37.45;99311.02;105184;1271;61173;-76
2022/06/18 11:40:09;;;;;;;2.10;1.10;;;;;;;27.49;36.85;99313.69;104995;1271;75100;-76
2022/06/18 11:43:07;;;;;;;1.10;0.90;;;;;;;27.43;36.24;99312.69;105225;1271;68169;-75
2022/06/18 11:45:57;;;;;;;1.10;1.10;;;;;;;27.44;37.17;99309.38;105157;1271;73215;-77
2022/06/18 11:48:37;;;;;;;1.20;1.10;;;;;;;27.57;37.62;99305.13;105228;1271;61340;-76
2022/06/18 11:51:20;;;;;;;1.30;1.20;;;;;;;27.58;37.03;99303.48;105234;1271;61303;-76
2022/06/18 11:54:13;;;;;;;1.30;1.20;;;;;;;27.52;36.41;99299.50;105233;1271;75270;-76